Time;durP1;ratioP1;P1;durP2;ratioP2;P2;SDS_P1;SDS_P2;PMS_P1;PMS_P2;Temp;Humidity;BMP_temperature;BMP_pressure;BME280_temperature;BME280_humidity;BME280_pressure;Samples;Min_cycle;Max_cycle;Signal;HPM_P1;HPM_P2
2023/05/15 00:03:09;;;;;;;26.80;21.13;;;;;;;9.56;100.00;101613.88;10335959;28;20042;-75
2023/05/15 00:08:10;;;;;;;29.40;21.20;;;;;;;9.45;100.00;101603.47;10333865;28;20030;-76
2023/05/15 00:13:10;;;;;;;27.20;22.77;;;;;;;9.35;100.00;101592.84;10333325;28;20030;-73
2023/05/15 00:18:11;;;;;;;31.73;21.38;;;;;;;9.29;100.00;101593.53;10334886;28;20137;-74
2023/05/15 00:23:11;;;;;;;24.80;19.80;;;;;;;9.18;100.00;101593.88;10341140;28;20081;-75
2023/05/15 00:28:11;;;;;;;31.58;23.15;;;;;;;9.10;100.00;101593.91;10334370;28;20034;-76
2023/05/15 00:33:12;;;;;;;29.05;22.98;;;;;;;9.11;100.00;101592.88;10334149;28;20501;-75
2023/05/15 00:38:12;;;;;;;29.10;24.52;;;;;;;9.10;100.00;101581.22;10335782;28;20108;-74
2023/05/15 00:43:13;;;;;;;35.03;23.15;;;;;;;9.11;100.00;101585.59;10334010;28;20244;-73
2023/05/15 00:48:13;;;;;;;32.90;25.90;;;;;;;9.12;100.00;101587.28;10349595;28;20398;-74
2023/05/15 00:53:14;;;;;;;30.35;23.77;;;;;;;9.12;100.00;101576.47;10317637;28;20053;-74
2023/05/15 00:58:14;;;;;;;36.50;24.55;;;;;;;9.12;100.00;101572.94;10349582;28;20034;-76
2023/05/15 01:03:15;;;;;;;31.55;23.75;;;;;;;9.03;100.00;101558.59;10350149;28;20030;-74
2023/05/15 01:08:26;;;;;;;31.65;24.58;;;;;;;9.06;100.00;101569.06;10332656;28;20041;-74
2023/05/15 01:13:26;;;;;;;28.65;23.05;;;;;;;9.01;100.00;101557.94;10333913;28;20470;-74
2023/05/15 01:18:31;;;;;;;30.95;24.17;;;;;;;8.92;100.00;101562.50;10332695;28;20066;-75
2023/05/15 01:23:50;;;;;;;32.05;24.52;;;;;;;8.83;100.00;101564.34;10330696;28;20393;-75
2023/05/15 01:28:58;;;;;;;27.75;24.23;;;;;;;8.77;100.00;101561.50;10331958;28;20033;-76
2023/05/15 01:34:00;;;;;;;39.13;25.95;;;;;;;8.70;100.00;101560.47;10313778;28;20141;-77
2023/05/15 01:39:01;;;;;;;29.02;23.23;;;;;;;8.69;100.00;101569.59;10313771;28;20400;-75
2023/05/15 01:44:05;;;;;;;36.97;23.77;;;;;;;8.69;100.00;101561.50;10346262;28;20041;-75
2023/05/15 01:49:06;;;;;;;36.70;25.27;;;;;;;8.68;100.00;101570.59;10345360;28;20030;-75
2023/05/15 01:54:07;;;;;;;35.83;23.35;;;;;;;8.69;100.00;101562.34;10329774;28;20035;-76
2023/05/15 01:59:07;;;;;;;31.52;24.05;;;;;;;8.73;100.00;101560.16;10352078;28;20401;-75
2023/05/15 02:04:08;;;;;;;35.53;25.13;;;;;;;8.74;100.00;101567.22;10329556;28;20037;-76
2023/05/15 02:09:08;;;;;;;34.47;26.73;;;;;;;8.82;100.00;101559.13;10348573;28;20050;-75
2023/05/15 02:14:09;;;;;;;30.88;25.33;;;;;;;8.87;100.00;101561.31;10337730;28;20030;-76
2023/05/15 02:19:09;;;;;;;35.38;26.02;;;;;;;8.90;100.00;101556.41;10333791;28;20038;-76
2023/05/15 02:24:09;;;;;;;36.05;26.17;;;;;;;8.85;100.00;101548.84;10336372;28;20034;-74
2023/05/15 02:29:20;;;;;;;30.55;26.83;;;;;;;8.75;100.00;101531.13;10331018;28;20049;-74
2023/05/15 02:34:38;;;;;;;36.67;26.00;;;;;;;8.76;100.00;101544.44;10331129;28;20144;-75
2023/05/15 02:39:40;;;;;;;40.67;25.52;;;;;;;8.73;100.00;101538.53;10348995;28;20056;-76
2023/05/15 02:44:41;;;;;;;32.08;25.88;;;;;;;8.73;100.00;101533.97;10331243;28;20053;-74
2023/05/15 02:49:41;;;;;;;31.52;23.75;;;;;;;8.78;100.00;101536.19;10317896;28;20061;-75
2023/05/15 02:54:42;;;;;;;30.05;24.40;;;;;;;8.77;100.00;101540.72;10350180;28;20092;-76
2023/05/15 02:59:42;;;;;;;32.97;26.70;;;;;;;8.76;100.00;101536.34;10334049;28;20058;-75
2023/05/15 03:04:43;;;;;;;39.85;30.83;;;;;;;8.81;100.00;101538.56;10331315;28;20069;-74
2023/05/15 03:09:43;;;;;;;37.25;31.35;;;;;;;8.89;100.00;101530.41;10337038;28;20073;-75
2023/05/15 03:14:43;;;;;;;40.50;30.27;;;;;;;9.00;100.00;101549.00;10357284;28;20551;-73
2023/05/15 03:19:44;;;;;;;44.45;32.67;;;;;;;9.18;100.00;101539.81;10343722;28;20046;-74
2023/05/15 03:24:44;;;;;;;38.17;33.53;;;;;;;9.45;100.00;101546.69;10336822;28;20458;-75
2023/05/15 03:29:45;;;;;;;53.95;36.70;;;;;;;9.64;100.00;101551.69;10338998;28;20145;-73
2023/05/15 03:34:45;;;;;;;52.95;37.60;;;;;;;9.77;100.00;101551.94;10340161;28;20126;-76
2023/05/15 03:39:46;;;;;;;40.80;36.40;;;;;;;9.87;100.00;101561.72;10335349;28;20494;-73
2023/05/15 03:44:46;;;;;;;44.33;35.40;;;;;;;9.98;100.00;101567.56;10334798;28;20038;-74
2023/05/15 03:49:46;;;;;;;53.97;36.53;;;;;;;10.04;100.00;101554.34;10333653;28;20125;-74
2023/05/15 03:54:47;;;;;;;33.65;29.67;;;;;;;10.04;100.00;101554.34;10334160;28;20034;-75
2023/05/15 03:59:47;;;;;;;36.55;30.45;;;;;;;10.02;100.00;101560.78;10335312;28;20065;-75
2023/05/15 04:04:48;;;;;;;42.97;29.02;;;;;;;9.99;100.00;101550.31;10333590;28;20034;-76
2023/05/15 04:09:48;;;;;;;32.10;26.63;;;;;;;10.08;100.00;101551.09;10334124;28;20062;-75
2023/05/15 04:14:48;;;;;;;36.55;30.50;;;;;;;10.18;100.00;101556.31;10332783;28;20446;-76
2023/05/15 04:19:49;;;;;;;43.08;30.75;;;;;;;10.26;100.00;101548.16;10348060;28;20042;-74
2023/05/15 04:24:49;;;;;;;34.92;27.73;;;;;;;10.32;100.00;101547.44;10332288;28;20642;-75
2023/05/15 04:29:50;;;;;;;27.73;24.45;;;;;;;10.34;100.00;101555.34;10333955;28;20141;-75
2023/05/15 04:34:50;;;;;;;29.10;26.00;;;;;;;10.42;100.00;101537.19;10351292;28;20103;-77
2023/05/15 04:39:51;;;;;;;30.05;26.05;;;;;;;10.53;100.00;101543.22;10333540;28;20129;-78
2023/05/15 04:44:52;;;;;;;30.38;25.25;;;;;;;10.67;100.00;101537.00;10350586;28;20038;-76
2023/05/15 04:49:52;;;;;;;32.03;27.52;;;;;;;10.85;100.00;101542.94;10343564;28;20044;-76
2023/05/15 04:54:54;;;;;;;40.67;29.45;;;;;;;11.00;100.00;101540.25;10344013;28;20497;-75
2023/05/15 04:59:54;;;;;;;38.17;28.77;;;;;;;11.09;100.00;101538.31;10333581;28;20134;-78
2023/05/15 05:04:55;;;;;;;35.67;29.05;;;;;;;11.13;100.00;101540.44;10340445;28;20046;-76
2023/05/15 05:09:55;;;;;;;38.78;28.63;;;;;;;11.22;100.00;101527.66;10333567;28;20592;-77
2023/05/15 05:14:56;;;;;;;36.63;28.50;;;;;;;11.29;100.00;101525.88;10330522;28;20042;-76
2023/05/15 05:19:56;;;;;;;35.10;29.35;;;;;;;11.32;100.00;101527.38;10294701;28;20494;-75
2023/05/15 05:24:56;;;;;;;33.78;25.85;;;;;;;11.41;100.00;101520.81;10371331;28;20092;-76
2023/05/15 05:29:57;;;;;;;33.25;26.25;;;;;;;11.55;100.00;101520.00;10353445;28;20053;-76
2023/05/15 05:34:57;;;;;;;30.95;24.65;;;;;;;11.67;100.00;101511.34;10371972;28;20045;-77
2023/05/15 05:39:58;;;;;;;35.92;24.20;;;;;;;11.72;100.00;101517.91;10353533;28;20538;-78
2023/05/15 05:44:58;;;;;;;36.63;27.08;;;;;;;11.77;100.00;101517.31;10371732;28;20102;-76
2023/05/15 05:49:59;;;;;;;28.98;25.10;;;;;;;11.89;100.00;101507.69;10371001;28;20374;-76
2023/05/15 05:54:59;;;;;;;33.00;25.73;;;;;;;11.96;100.00;101502.31;10370052;28;20045;-76
2023/05/15 05:59:59;;;;;;;27.38;24.30;;;;;;;12.03;100.00;101500.56;10371387;28;20496;-77
2023/05/15 06:05:00;;;;;;;34.47;25.63;;;;;;;12.19;100.00;101502.16;10369758;28;20041;-77
2023/05/15 06:10:01;;;;;;;34.70;27.30;;;;;;;12.36;100.00;101497.31;10370705;28;20414;-77
2023/05/15 06:15:02;;;;;;;28.23;23.45;;;;;;;12.52;100.00;101495.16;10369386;28;20095;-76
2023/05/15 06:20:06;;;;;;;34.85;25.45;;;;;;;12.60;100.00;101502.31;10368564;28;20038;-77
2023/05/15 06:25:10;;;;;;;32.95;26.63;;;;;;;12.70;100.00;101512.84;10353814;28;20049;-78
2023/05/15 06:30:11;;;;;;;28.75;24.55;;;;;;;12.78;100.00;101508.13;10368389;28;20046;-77
2023/05/15 06:35:11;;;;;;;34.17;26.55;;;;;;;12.96;100.00;101509.53;10370578;28;20038;-77
2023/05/15 06:40:12;;;;;;;34.47;25.40;;;;;;;13.20;100.00;101511.75;10376026;28;20575;-76
2023/05/15 06:45:12;;;;;;;28.77;24.15;;;;;;;13.41;100.00;101496.44;10370101;28;20049;-75
2023/05/15 06:50:12;;;;;;;42.35;23.83;;;;;;;13.54;100.00;101501.94;10369212;28;20045;-77
2023/05/15 06:55:13;;;;;;;35.75;25.02;;;;;;;13.62;100.00;101503.63;10372585;28;20064;-77
2023/05/15 07:00:14;;;;;;;33.67;24.10;;;;;;;13.68;100.00;101508.25;10369963;28;20453;-78
2023/05/15 07:05:14;;;;;;;30.48;22.77;;;;;;;13.68;100.00;101508.25;10369928;28;20038;-77
2023/05/15 07:10:15;;;;;;;36.42;24.45;;;;;;;13.62;100.00;101520.78;10369670;28;20454;-78
2023/05/15 07:15:16;;;;;;;38.72;25.55;;;;;;;13.57;100.00;101526.03;10355368;28;20088;-77
2023/05/15 07:20:16;;;;;;;33.55;25.30;;;;;;;13.45;100.00;101524.91;10381420;28;20125;-78
2023/05/15 07:25:17;;;;;;;38.75;28.20;;;;;;;13.44;100.00;101534.97;10389372;28;20049;-79
2023/05/15 07:30:17;;;;;;;34.00;25.33;;;;;;;13.34;100.00;101528.22;10369935;28;20068;-76
2023/05/15 07:35:18;;;;;;;40.75;27.48;;;;;;;13.40;100.00;101535.53;10368407;28;20046;-76
2023/05/15 07:40:18;;;;;;;38.45;25.35;;;;;;;13.23;100.00;101533.13;10369248;28;20529;-76
2023/05/15 07:45:19;;;;;;;39.90;28.75;;;;;;;13.12;100.00;101536.41;10351405;28;20045;-76
2023/05/15 07:50:19;;;;;;;40.08;27.88;;;;;;;13.16;100.00;101539.56;10368390;28;20034;-75
2023/05/15 07:55:20;;;;;;;47.53;31.63;;;;;;;13.15;100.00;101551.50;10370786;28;20485;-76
2023/05/15 08:00:20;;;;;;;40.53;30.98;;;;;;;13.16;100.00;101529.53;10376659;28;20096;-77
2023/05/15 08:05:21;;;;;;;41.55;30.02;;;;;;;13.23;100.00;101530.41;10374903;28;20038;-77
2023/05/15 08:10:21;;;;;;;54.70;33.35;;;;;;;13.30;100.00;101535.91;10375922;28;20065;-77
2023/05/15 08:15:22;;;;;;;51.00;32.83;;;;;;;13.20;100.00;101538.13;10362637;28;20545;-78
2023/05/15 08:20:23;;;;;;;61.47;39.35;;;;;;;13.14;100.00;101547.91;10373390;28;20450;-77
2023/05/15 08:25:23;;;;;;;59.03;36.80;;;;;;;13.13;100.00;101540.78;10357304;28;20065;-77
2023/05/15 08:30:24;;;;;;;53.72;36.85;;;;;;;13.18;100.00;101534.78;10374415;28;20050;-77
2023/05/15 08:35:24;;;;;;;49.28;35.88;;;;;;;13.24;100.00;101540.28;10375166;28;20045;-78
2023/05/15 08:40:25;;;;;;;56.15;39.40;;;;;;;13.28;100.00;101546.16;10374968;28;20041;-77
2023/05/15 08:45:25;;;;;;;45.40;32.58;;;;;;;13.48;100.00;101549.00;10374466;28;20501;-78
2023/05/15 08:50:25;;;;;;;44.72;32.38;;;;;;;13.95;100.00;101548.16;10373122;28;20030;-77
2023/05/15 08:55:27;;;;;;;39.67;25.85;;;;;;;14.14;100.00;101548.44;10356654;28;20069;-78
2023/05/15 09:00:28;;;;;;;46.70;28.63;;;;;;;14.07;100.00;101548.44;10357420;28;20038;-78
2023/05/15 09:05:28;;;;;;;36.75;25.40;;;;;;;14.37;100.00;101553.53;10374028;28;20156;-77
2023/05/15 09:10:29;;;;;;;32.13;21.75;;;;;;;14.81;100.00;101552.97;10356468;28;20034;-76
2023/05/15 09:15:29;;;;;;;30.90;22.38;;;;;;;14.99;100.00;101556.94;10356957;28;20539;-76
2023/05/15 09:20:34;;;;;;;24.95;19.63;;;;;;;14.97;100.00;101556.34;10355894;28;20121;-77
2023/05/15 09:25:42;;;;;;;28.08;16.83;;;;;;;14.98;100.00;101552.56;10371837;28;20049;-78
2023/05/15 09:30:42;;;;;;;21.45;16.27;;;;;;;15.07;100.00;101557.56;10371563;28;20049;-77
2023/05/15 09:35:44;;;;;;;24.70;17.92;;;;;;;15.58;100.00;101559.56;10371920;28;20077;-75
2023/05/15 09:40:44;;;;;;;25.52;17.73;;;;;;;15.86;100.00;101557.59;10371812;28;20029;-78
2023/05/15 09:45:47;;;;;;;25.20;16.80;;;;;;;15.44;100.00;101562.53;10392499;28;20056;-76
2023/05/15 09:50:47;;;;;;;21.25;15.60;;;;;;;15.32;100.00;101554.19;10371112;28;20025;-76
2023/05/15 09:55:48;;;;;;;23.63;16.80;;;;;;;15.31;100.00;101568.88;10356019;28;20473;-77
2023/05/15 10:00:48;;;;;;;23.80;15.18;;;;;;;15.11;100.00;101568.91;10353844;28;20068;-76
2023/05/15 10:05:48;;;;;;;23.10;15.73;;;;;;;14.91;100.00;101574.38;10353569;28;20454;-77
2023/05/15 10:10:49;;;;;;;20.98;16.38;;;;;;;14.72;100.00;101576.03;10369840;28;20133;-77
2023/05/15 10:15:49;;;;;;;16.55;10.27;;;;;;;14.88;100.00;101581.06;10353111;28;20139;-76
2023/05/15 10:20:50;;;;;;;9.90;8.50;;;;;;;15.15;100.00;101581.06;10352132;28;20088;-77
2023/05/15 10:25:58;;;;;;;16.70;6.82;;;;;;;15.97;100.00;101579.63;10368871;28;20187;-78
2023/05/15 10:31:00;;;;;;;5.05;4.65;;;;;;;16.60;100.00;101576.13;10369906;28;20088;-78
2023/05/15 10:36:00;;;;;;;4.95;4.45;;;;;;;16.37;100.00;101584.91;10369158;28;20034;-77
2023/05/15 10:41:00;;;;;;;4.40;3.95;;;;;;;16.09;100.00;101582.53;10370561;28;20042;-79
2023/05/15 10:46:01;;;;;;;9.60;4.63;;;;;;;15.62;100.00;101584.56;10368789;28;20137;-77
2023/05/15 10:51:01;;;;;;;5.55;4.60;;;;;;;15.79;100.00;101598.59;10367627;28;20068;-78
2023/05/15 10:56:03;;;;;;;6.28;5.60;;;;;;;15.36;100.00;101593.63;10368506;28;20034;-78
2023/05/15 11:01:04;;;;;;;7.45;6.00;;;;;;;14.79;100.00;101595.13;10368565;28;20045;-77
2023/05/15 11:06:11;;;;;;;14.85;7.07;;;;;;;14.43;100.00;101599.03;10352735;28;20584;-78
2023/05/15 11:11:50;;;;;;;9.65;5.57;;;;;;;14.52;100.00;101597.00;10368253;28;20108;-79
2023/05/15 11:16:53;;;;;;;9.30;4.93;;;;;;;14.34;100.00;101600.25;10366045;28;20050;-76
2023/05/15 11:21:59;;;;;;;12.77;5.15;;;;;;;14.65;100.00;101603.28;10382512;28;20563;-78
2023/05/15 11:27:00;;;;;;;12.25;4.57;;;;;;;14.71;100.00;101600.75;10368372;28;20148;-78
2023/05/15 11:32:01;;;;;;;11.48;4.32;;;;;;;14.46;100.00;101611.41;10375141;28;20481;-78
2023/05/15 11:37:01;;;;;;;4.95;3.92;;;;;;;14.18;100.00;101596.00;10380569;28;20484;-76
2023/05/15 11:42:12;;;;;;;7.18;4.53;;;;;;;14.14;100.00;101600.19;10381228;28;20037;-78
2023/05/15 11:47:12;;;;;;;7.22;4.18;;;;;;;14.00;100.00;101599.28;10376104;28;20048;-76
2023/05/15 11:52:13;;;;;;;11.43;4.78;;;;;;;13.89;100.00;101614.31;10358200;28;20033;-76
2023/05/15 11:57:13;;;;;;;6.47;4.00;;;;;;;13.89;100.00;101605.31;10374786;28;20038;-77
2023/05/15 12:02:13;;;;;;;11.63;3.08;;;;;;;14.06;100.00;101601.19;10374252;28;20041;-78
2023/05/15 12:07:15;;;;;;;9.60;3.40;;;;;;;14.40;100.00;101608.44;10358859;28;20111;-77
2023/05/15 12:12:15;;;;;;;4.60;3.35;;;;;;;14.55;100.00;101604.72;10380411;28;20066;-77
2023/05/15 12:17:15;;;;;;;21.30;5.57;;;;;;;14.38;100.00;101607.78;10381423;28;20107;-77
2023/05/15 12:22:17;;;;;;;9.85;4.10;;;;;;;14.35;100.00;101612.81;10363048;28;20042;-77
2023/05/15 12:27:18;;;;;;;11.70;4.80;;;;;;;14.36;100.00;101609.06;10375255;28;20054;-79
2023/05/15 12:32:18;;;;;;;15.15;4.40;;;;;;;14.53;100.00;101612.28;10373114;28;20431;-76
2023/05/15 12:37:21;;;;;;;13.98;4.82;;;;;;;14.59;100.00;101608.72;10356540;28;20120;-77
2023/05/15 12:42:22;;;;;;;7.93;4.55;;;;;;;14.40;100.00;101618.50;10372172;28;20037;-77
2023/05/15 12:47:23;;;;;;;6.18;3.55;;;;;;;14.03;100.00;101620.66;10374444;28;20048;-77
2023/05/15 12:52:27;;;;;;;7.65;5.25;;;;;;;13.89;100.00;101622.50;10383796;28;20034;-77
2023/05/15 12:57:27;;;;;;;12.07;4.88;;;;;;;13.87;100.00;101624.56;10378596;28;20036;-78
2023/05/15 13:02:28;;;;;;;8.20;3.17;;;;;;;13.94;100.00;101620.03;10372673;28;20056;-77
2023/05/15 13:07:29;;;;;;;2.90;2.65;;;;;;;13.88;100.00;101622.69;10371747;28;20084;-77
2023/05/15 13:12:35;;;;;;;8.45;3.67;;;;;;;14.33;100.00;101620.38;10371678;28;20129;-76
2023/05/15 13:17:38;;;;;;;3.63;3.00;;;;;;;14.63;100.00;101621.72;10372407;28;20048;-76
2023/05/15 13:22:39;;;;;;;6.18;2.67;;;;;;;14.38;100.00;101636.94;10354963;28;20505;-77
2023/05/15 13:27:40;;;;;;;8.90;2.58;;;;;;;14.06;100.00;101628.44;10372639;28;20081;-79
2023/05/15 13:32:40;;;;;;;6.43;4.20;;;;;;;13.90;100.00;101640.50;10371944;28;20092;-76
2023/05/15 13:37:41;;;;;;;6.50;2.78;;;;;;;13.86;100.00;101638.41;10371724;28;20038;-77
2023/05/15 13:42:41;;;;;;;6.38;2.33;;;;;;;13.83;100.00;101633.34;10370728;28;20068;-78
2023/05/15 13:47:42;;;;;;;6.80;3.15;;;;;;;13.87;100.00;101642.78;10387357;28;20492;-77
2023/05/15 13:52:43;;;;;;;4.57;3.33;;;;;;;13.77;100.00;101642.31;10370783;28;20049;-76
2023/05/15 13:57:44;;;;;;;16.08;2.97;;;;;;;14.14;100.00;101638.34;10370735;28;20029;-76
2023/05/15 14:02:44;;;;;;;3.80;1.60;;;;;;;14.12;100.00;101633.06;10369641;28;20044;-77
2023/05/15 14:07:45;;;;;;;8.60;3.03;;;;;;;14.01;100.00;101633.66;10353577;28;20397;-78
2023/05/15 14:12:45;;;;;;;8.38;3.28;;;;;;;13.92;100.00;101640.31;10369678;28;20077;-79
2023/05/15 14:17:47;;;;;;;16.90;3.22;;;;;;;13.66;100.00;101644.56;10370904;28;20041;-76
2023/05/15 14:22:47;;;;;;;4.30;2.67;;;;;;;13.51;100.00;101643.84;10369759;28;20072;-78
2023/05/15 14:27:48;;;;;;;8.55;4.22;;;;;;;13.85;100.00;101642.16;10380265;28;20456;-79
2023/05/15 14:32:48;;;;;;;4.72;2.13;;;;;;;14.68;100.00;101640.22;10371342;28;20050;-78
2023/05/15 14:37:49;;;;;;;5.57;3.35;;;;;;;14.27;100.00;101653.88;10352832;28;20045;-76
2023/05/15 14:42:49;;;;;;;13.98;4.03;;;;;;;13.76;100.00;101655.09;10380403;28;20030;-77
2023/05/15 14:47:49;;;;;;;10.77;4.07;;;;;;;13.67;100.00;101656.28;10383911;28;20042;-79
2023/05/15 14:52:50;;;;;;;9.02;3.75;;;;;;;13.65;100.00;101656.47;10353556;28;20456;-78
2023/05/15 14:57:50;;;;;;;17.35;4.70;;;;;;;13.45;100.00;101653.63;10370891;28;20658;-78
2023/05/15 15:02:51;;;;;;;12.07;5.18;;;;;;;13.27;100.00;101653.25;10371368;28;20046;-78
2023/05/15 15:08:07;;;;;;;5.68;3.20;;;;;;;13.19;100.00;101661.56;10376643;28;20413;-77
2023/05/15 15:13:09;;;;;;;15.13;3.22;;;;;;;13.06;100.00;101664.16;10360995;28;20205;-77
2023/05/15 15:18:09;;;;;;;7.97;3.53;;;;;;;12.92;100.00;101677.63;10376183;28;20426;-77
2023/05/15 15:23:09;;;;;;;3.88;3.58;;;;;;;12.80;100.00;101669.13;10377215;28;20029;-77
2023/05/15 15:28:10;;;;;;;15.27;6.03;;;;;;;12.48;100.00;101677.78;10377237;28;20045;-76
2023/05/15 15:33:10;;;;;;;12.65;4.28;;;;;;;12.33;100.00;101680.50;10376369;28;20057;-78
2023/05/15 15:38:12;;;;;;;11.27;3.80;;;;;;;12.23;100.00;101672.66;10377120;28;20037;-77
2023/05/15 15:43:12;;;;;;;13.90;6.05;;;;;;;12.02;100.00;101684.28;10375589;28;20176;-77
2023/05/15 15:48:12;;;;;;;7.97;4.25;;;;;;;12.00;100.00;101688.22;10377061;28;20536;-77
2023/05/15 15:53:13;;;;;;;12.60;3.75;;;;;;;11.89;100.00;101685.97;10376299;28;20053;-78
2023/05/15 15:58:13;;;;;;;25.65;5.80;;;;;;;11.71;100.00;101691.72;10359329;28;20424;-78
2023/05/15 16:03:14;;;;;;;26.70;6.07;;;;;;;11.66;100.00;101708.56;10385360;28;20041;-76
2023/05/15 16:08:14;;;;;;;20.75;7.18;;;;;;;11.55;100.00;101706.28;10374058;28;20119;-77
2023/05/15 16:13:14;;;;;;;7.65;4.22;;;;;;;11.54;100.00;101731.75;10375724;28;20066;-77
2023/05/15 16:18:15;;;;;;;17.25;6.38;;;;;;;11.50;100.00;101728.56;10373550;28;20068;-75
2023/05/15 16:23:15;;;;;;;11.70;3.95;;;;;;;11.50;100.00;101733.97;10374776;28;20030;-76
2023/05/15 16:28:16;;;;;;;11.93;5.30;;;;;;;11.42;100.00;101734.03;10373720;28;20069;-75
2023/05/15 16:33:17;;;;;;;18.98;5.03;;;;;;;11.45;100.00;101733.66;10373132;28;20058;-78
2023/05/15 16:38:18;;;;;;;19.15;4.25;;;;;;;11.40;100.00;101728.81;10373710;28;20038;-78
2023/05/15 16:43:20;;;;;;;18.48;4.82;;;;;;;11.54;100.00;101756.16;10374535;28;20042;-77
2023/05/15 16:48:21;;;;;;;17.05;4.38;;;;;;;11.53;100.00;101754.47;10374779;28;20041;-75
2023/05/15 16:53:22;;;;;;;15.25;4.60;;;;;;;11.54;100.00;101757.00;10388518;28;20041;-78
2023/05/15 16:58:22;;;;;;;11.07;3.47;;;;;;;11.58;100.00;101744.75;10373815;28;20119;-79
2023/05/15 17:03:23;;;;;;;16.00;4.82;;;;;;;11.60;100.00;101760.84;10374928;28;20121;-76
2023/05/15 17:08:23;;;;;;;15.60;3.78;;;;;;;11.59;100.00;101757.28;10377539;28;20073;-78
2023/05/15 17:13:24;;;;;;;4.38;2.60;;;;;;;11.73;100.00;101758.34;10385989;28;20056;-78
2023/05/15 17:18:24;;;;;;;9.05;3.97;;;;;;;11.70;100.00;101758.72;10390528;28;20132;-77
2023/05/15 17:23:25;;;;;;;8.13;3.13;;;;;;;11.42;100.00;101774.72;10356667;28;20046;-77
2023/05/15 17:28:25;;;;;;;12.38;4.03;;;;;;;11.27;100.00;101763.00;10373070;28;20112;-78
2023/05/15 17:33:26;;;;;;;27.60;3.38;;;;;;;11.20;100.00;101784.56;10378512;28;20074;-78
2023/05/15 17:38:26;;;;;;;8.63;3.30;;;;;;;11.28;100.00;101786.38;10376117;28;20053;-78
2023/05/15 17:43:27;;;;;;;12.90;3.20;;;;;;;11.32;100.00;101799.38;10372092;28;20069;-77
2023/05/15 17:48:27;;;;;;;14.27;4.50;;;;;;;11.29;100.00;101799.72;10372736;28;20469;-77
2023/05/15 17:53:27;;;;;;;13.45;3.65;;;;;;;11.22;100.00;101806.91;10354434;28;20219;-77
2023/05/15 17:58:28;;;;;;;16.10;4.55;;;;;;;11.16;100.00;101799.47;10371124;28;20041;-79
2023/05/15 18:03:29;;;;;;;16.38;4.88;;;;;;;11.13;100.00;101806.09;10355006;28;20298;-77
2023/05/15 18:08:29;;;;;;;3.70;2.78;;;;;;;11.09;100.00;101814.78;10371259;28;20065;-77
2023/05/15 18:13:30;;;;;;;20.75;4.30;;;;;;;11.07;100.00;101827.66;10374368;28;20179;-76
2023/05/15 18:18:30;;;;;;;25.67;5.55;;;;;;;11.08;100.00;101826.66;10376287;28;20041;-78
2023/05/15 18:23:30;;;;;;;12.32;3.80;;;;;;;10.97;100.00;101829.75;10374203;28;20516;-75
2023/05/15 18:28:31;;;;;;;20.13;4.50;;;;;;;10.92;100.00;101835.72;10375416;28;20148;-76
2023/05/15 18:33:31;;;;;;;23.33;4.75;;;;;;;11.01;100.00;101841.91;10358212;28;20072;-77
2023/05/15 18:38:32;;;;;;;20.85;5.00;;;;;;;10.95;100.00;101840.78;10368632;28;20056;-75
2023/05/15 18:43:32;;;;;;;18.77;4.28;;;;;;;10.88;100.00;101848.78;10368924;28;20037;-76
2023/05/15 18:48:33;;;;;;;13.95;3.45;;;;;;;10.91;100.00;101852.97;10393164;28;20045;-76
2023/05/15 18:53:33;;;;;;;23.60;4.95;;;;;;;10.92;100.00;101857.41;10370167;28;20044;-77
2023/05/15 18:58:34;;;;;;;28.33;6.30;;;;;;;10.90;100.00;101854.00;10400073;28;20072;-76
2023/05/15 19:03:34;;;;;;;18.15;5.72;;;;;;;10.87;100.00;101857.91;10393462;28;20496;-74
2023/05/15 19:08:35;;;;;;;11.13;4.50;;;;;;;10.85;100.00;101872.69;10415378;28;20087;-75
2023/05/15 19:13:35;;;;;;;9.48;3.50;;;;;;;10.72;100.00;101878.66;10390340;28;20070;-78
2023/05/15 19:18:36;;;;;;;12.68;5.07;;;;;;;10.72;100.00;101881.34;10369611;28;20093;-77
2023/05/15 19:23:36;;;;;;;7.53;4.55;;;;;;;10.68;100.00;101893.53;10368321;28;20053;-76
2023/05/15 19:28:37;;;;;;;14.68;4.63;;;;;;;10.65;100.00;101883.06;10367411;28;20109;-77
2023/05/15 19:33:37;;;;;;;24.85;5.32;;;;;;;10.62;100.00;101894.22;10371752;28;20412;-77
2023/05/15 19:38:38;;;;;;;24.95;4.93;;;;;;;10.63;100.00;101899.50;10408965;28;20166;-76
2023/05/15 19:43:38;;;;;;;12.85;4.35;;;;;;;10.52;100.00;101899.00;10331166;28;20038;-76
2023/05/15 19:48:39;;;;;;;24.40;4.82;;;;;;;10.23;100.00;101905.78;10340743;28;20095;-75
2023/05/15 19:53:40;;;;;;;9.57;3.35;;;;;;;9.99;100.00;101915.63;10375359;28;20026;-77
2023/05/15 19:58:40;;;;;;;12.45;4.80;;;;;;;9.96;100.00;101924.06;10375708;28;20509;-77
2023/05/15 20:03:40;;;;;;;12.38;5.20;;;;;;;9.92;100.00;101927.25;10374558;28;20121;-76
2023/05/15 20:08:41;;;;;;;11.50;3.65;;;;;;;9.95;100.00;101935.88;10375337;28;20065;-76
2023/05/15 20:13:41;;;;;;;9.60;4.50;;;;;;;10.00;100.00;101933.53;10375677;28;20030;-75
2023/05/15 20:18:43;;;;;;;18.60;4.70;;;;;;;10.04;100.00;101925.06;10357088;28;20045;-75
2023/05/15 20:23:44;;;;;;;13.45;4.43;;;;;;;9.86;100.00;101936.03;10381796;28;20034;-77
2023/05/15 20:28:44;;;;;;;10.57;4.10;;;;;;;9.71;100.00;101944.00;10373599;28;20482;-78
2023/05/15 20:33:45;;;;;;;20.13;4.63;;;;;;;9.64;100.00;101945.66;10374021;28;20437;-76
2023/05/15 20:38:47;;;;;;;16.30;3.40;;;;;;;9.72;100.00;101954.63;10375559;28;20049;-78
2023/05/15 20:43:47;;;;;;;25.25;5.15;;;;;;;9.79;100.00;101962.91;10386466;28;20448;-76
2023/05/15 20:48:47;;;;;;;19.58;4.40;;;;;;;9.85;100.00;101956.84;10375161;28;20052;-78
2023/05/15 20:53:48;;;;;;;9.82;4.00;;;;;;;9.73;100.00;101974.41;10373135;28;20478;-77
2023/05/15 20:58:48;;;;;;;23.27;4.28;;;;;;;9.57;100.00;101966.25;10372407;28;20041;-78
2023/05/15 21:03:49;;;;;;;10.60;4.95;;;;;;;9.54;100.00;101973.69;10388043;28;20045;-77
2023/05/15 21:08:50;;;;;;;21.30;5.13;;;;;;;9.42;100.00;101976.88;10388079;28;20033;-76
2023/05/15 21:13:50;;;;;;;14.38;3.58;;;;;;;9.42;100.00;101977.72;10371535;28;20048;-74
2023/05/15 21:18:51;;;;;;;8.30;3.90;;;;;;;9.33;100.00;101992.19;10387801;28;20128;-72
2023/05/15 21:23:51;;;;;;;11.23;3.40;;;;;;;9.25;100.00;101975.94;10371133;28;20034;-78
2023/05/15 21:28:52;;;;;;;16.77;3.60;;;;;;;9.14;100.00;101989.75;10372184;28;20029;-77
2023/05/15 21:33:53;;;;;;;12.02;4.20;;;;;;;9.07;100.00;101979.59;10387131;28;20053;-76
2023/05/15 21:38:53;;;;;;;11.90;4.25;;;;;;;8.97;100.00;101989.66;10371162;28;20038;-79
2023/05/15 21:43:54;;;;;;;11.38;3.50;;;;;;;8.92;100.00;101997.41;10371971;28;20034;-77
2023/05/15 21:48:54;;;;;;;13.00;3.95;;;;;;;8.90;100.00;101999.41;10386978;28;20119;-76
2023/05/15 21:53:54;;;;;;;14.18;3.17;;;;;;;8.77;100.00;102001.69;10371388;28;20088;-77
2023/05/15 21:58:55;;;;;;;10.48;4.28;;;;;;;8.72;100.00;102004.03;10372193;28;20073;-77
2023/05/15 22:03:56;;;;;;;14.82;4.57;;;;;;;8.67;100.00;102012.59;10371224;28;20049;-78
2023/05/15 22:08:56;;;;;;;19.50;3.90;;;;;;;8.77;100.00;102020.59;10396491;28;20041;-78
2023/05/15 22:13:57;;;;;;;18.17;3.35;;;;;;;8.76;100.00;102021.59;10398613;28;20044;-77
2023/05/15 22:18:57;;;;;;;18.25;3.65;;;;;;;8.70;100.00;102020.38;10383468;28;20026;-77
2023/05/15 22:23:57;;;;;;;10.18;3.65;;;;;;;8.59;100.00;102013.38;10370619;28;20034;-78
2023/05/15 22:28:58;;;;;;;5.30;3.88;;;;;;;8.65;100.00;102028.13;10386928;28;20034;-76
2023/05/15 22:33:58;;;;;;;13.88;3.42;;;;;;;8.69;100.00;102024.09;10393845;28;20129;-77